Time;durP1;ratioP1;P1;durP2;ratioP2;P2;SDS_P1;SDS_P2;PMS_P1;PMS_P2;Temp;Humidity;BMP_temperature;BMP_pressure;BME280_temperature;BME280_humidity;BME280_pressure;Samples;Min_cycle;Max_cycle;Signal;HPM_P1;HPM_P2
2020/12/19 00:00:13;;;;;;;23.52;13.25;;;6.80;91.90;;;;;;5050229;28;20377;-73
2020/12/19 00:02:40;;;;;;;17.77;13.23;;;6.80;91.40;;;;;;5050263;28;20417;-74
2020/12/19 00:05:06;;;;;;;19.02;13.10;;;6.80;91.70;;;;;;5050299;28;20389;-73
2020/12/19 00:07:32;;;;;;;22.00;12.70;;;6.80;91.90;;;;;;5050025;28;20388;-75
2020/12/19 00:09:58;;;;;;;26.15;14.88;;;6.70;92.40;;;;;;5050391;28;20404;-75
2020/12/19 00:12:23;;;;;;;23.67;13.63;;;6.70;93.30;;;;;;5050227;28;20393;-73
2020/12/19 00:14:49;;;;;;;22.10;14.20;;;6.70;92.80;;;;;;5050007;28;20458;-74
2020/12/19 00:17:15;;;;;;;21.77;13.20;;;6.70;92.90;;;;;;5049906;28;20381;-76
2020/12/19 00:19:41;;;;;;;20.80;13.90;;;6.70;93.10;;;;;;5050013;28;20374;-74
2020/12/19 00:22:07;;;;;;;22.70;14.17;;;6.70;93.00;;;;;;5050186;28;20409;-74
2020/12/19 00:24:32;;;;;;;19.92;13.18;;;6.70;92.90;;;;;;5049987;28;20384;-73
2020/12/19 00:26:58;;;;;;;20.02;14.15;;;6.70;92.80;;;;;;5053545;28;20378;-74
2020/12/19 00:29:24;;;;;;;18.30;13.00;;;6.80;92.30;;;;;;5054950;28;20386;-73
2020/12/19 00:31:49;;;;;;;19.40;13.27;;;6.80;92.50;;;;;;5054512;28;20479;-73
2020/12/19 00:34:16;;;;;;;19.17;12.63;;;6.90;91.40;;;;;;5056555;28;20468;-73
2020/12/19 00:36:42;;;;;;;19.70;12.98;;;6.90;91.20;;;;;;5056859;28;20382;-74
2020/12/19 00:39:08;;;;;;;21.43;13.70;;;6.90;91.40;;;;;;5055294;28;20414;-73
2020/12/19 00:41:33;;;;;;;19.33;13.23;;;6.90;90.90;;;;;;5035849;28;20891;-73
2020/12/19 00:43:59;;;;;;;18.20;12.40;;;6.90;91.30;;;;;;5053356;28;20399;-73
2020/12/19 00:46:25;;;;;;;21.08;12.85;;;6.90;90.40;;;;;;5053488;28;20389;-74
2020/12/19 00:48:51;;;;;;;20.07;12.60;;;6.90;90.70;;;;;;5053162;28;20942;-74
2020/12/19 00:51:22;;;;;;;20.83;13.20;;;7.00;90.60;;;;;;5053317;28;20385;-73
2020/12/19 00:53:49;;;;;;;20.35;12.80;;;7.00;90.20;;;;;;5053314;28;20392;-73
2020/12/19 00:56:20;;;;;;;16.30;11.77;;;7.00;90.10;;;;;;5053276;28;20455;-72
2020/12/19 00:58:46;;;;;;;18.08;12.15;;;7.10;89.70;;;;;;5053098;28;20381;-74
2020/12/19 01:01:13;;;;;;;17.20;11.45;;;7.00;89.90;;;;;;5053464;28;20378;-73
2020/12/19 01:03:38;;;;;;;17.15;12.07;;;6.90;90.90;;;;;;5058122;28;20385;-74
2020/12/19 01:06:04;;;;;;;20.00;12.95;;;6.90;91.30;;;;;;5058956;28;20389;-75
2020/12/19 01:08:30;;;;;;;21.92;13.13;;;6.90;92.20;;;;;;5057965;28;20431;-75
2020/12/19 01:10:55;;;;;;;17.47;12.03;;;6.90;92.50;;;;;;5058883;28;20442;-73
2020/12/19 01:13:21;;;;;;;18.60;12.47;;;6.90;92.00;;;;;;5058512;28;20439;-74
2020/12/19 01:15:46;;;;;;;16.60;12.00;;;7.00;92.00;;;;;;5058991;28;20454;-75
2020/12/19 01:18:12;;;;;;;19.20;12.43;;;7.00;91.70;;;;;;5059037;28;20407;-73
2020/12/19 01:20:37;;;;;;;16.85;11.82;;;7.00;91.40;;;;;;5059087;28;20447;-77
2020/12/19 01:23:03;;;;;;;16.58;11.70;;;7.00;90.60;;;;;;5059257;28;20369;-73
2020/12/19 01:25:28;;;;;;;17.00;11.60;;;7.10;90.10;;;;;;5056422;28;20955;-73
2020/12/19 01:27:54;;;;;;;16.90;12.05;;;7.00;89.70;;;;;;5055897;28;20866;-74
2020/12/19 01:30:20;;;;;;;18.80;12.80;;;7.00;89.90;;;;;;5056039;28;20389;-72
2020/12/19 01:32:45;;;;;;;20.52;11.90;;;7.00;90.70;;;;;;5055834;28;20396;-72
2020/12/19 01:35:11;;;;;;;17.93;12.27;;;6.90;90.80;;;;;;5055701;28;20416;-73
2020/12/19 01:37:36;;;;;;;19.20;12.10;;;6.90;92.00;;;;;;5055351;28;20453;-74
2020/12/19 01:40:02;;;;;;;17.10;11.53;;;6.90;91.20;;;;;;5056463;28;20439;-73
2020/12/19 01:42:28;;;;;;;18.02;12.00;;;6.90;91.90;;;;;;5058161;28;20392;-73
2020/12/19 01:44:54;;;;;;;17.92;12.20;;;6.90;91.50;;;;;;5057699;28;20398;-73
2020/12/19 01:47:21;;;;;;;18.30;12.60;;;6.90;91.70;;;;;;5057362;28;20396;-74
2020/12/19 01:49:47;;;;;;;18.95;11.90;;;6.90;91.90;;;;;;5057420;28;20389;-74
2020/12/19 01:52:14;;;;;;;17.80;12.00;;;6.90;91.40;;;;;;5057931;28;20450;-73
2020/12/19 01:54:40;;;;;;;18.20;11.93;;;7.00;90.50;;;;;;5056921;28;20987;-74
2020/12/19 01:57:09;;;;;;;16.77;11.60;;;6.90;91.50;;;;;;5056277;28;20393;-73
2020/12/19 01:59:35;;;;;;;16.58;11.90;;;6.90;91.30;;;;;;5056821;28;20464;-74
2020/12/19 02:02:07;;;;;;;20.80;12.55;;;6.90;92.10;;;;;;5056170;28;20382;-74
2020/12/19 02:04:34;;;;;;;17.88;11.55;;;6.90;91.90;;;;;;5055681;28;20825;-73
2020/12/19 02:07:02;;;;;;;20.95;13.18;;;7.00;92.00;;;;;;5055761;28;20392;-74
2020/12/19 02:09:33;;;;;;;16.00;11.63;;;7.00;92.30;;;;;;5054304;28;20426;-74
2020/12/19 02:11:59;;;;;;;16.05;11.77;;;7.00;91.70;;;;;;5052303;28;20896;-74
2020/12/19 02:14:24;;;;;;;18.35;11.80;;;7.00;91.30;;;;;;5052035;28;20381;-73
2020/12/19 02:17:16;;;;;;;17.83;12.40;;;7.10;90.50;;;;;;5051579;28;20427;-74
2020/12/19 02:19:42;;;;;;;17.65;12.25;;;7.10;89.70;;;;;;5046914;28;20436;-74
2020/12/19 02:22:09;;;;;;;15.88;11.00;;;7.00;90.70;;;;;;5051843;28;20409;-73
2020/12/19 02:24:35;;;;;;;16.73;11.85;;;7.10;91.00;;;;;;5051766;28;20396;-73
2020/12/19 02:27:01;;;;;;;17.33;11.50;;;7.20;89.20;;;;;;5051436;28;20420;-73
2020/12/19 02:29:28;;;;;;;18.83;11.68;;;7.10;89.10;;;;;;5051638;28;20420;-74
2020/12/19 02:31:55;;;;;;;16.05;11.52;;;7.10;90.10;;;;;;5051480;28;20421;-73
2020/12/19 02:34:21;;;;;;;18.40;12.37;;;7.10;89.80;;;;;;5051185;28;20377;-73
2020/12/19 02:36:47;;;;;;;17.23;11.70;;;7.20;89.00;;;;;;5051216;28;20384;-74
2020/12/19 02:39:13;;;;;;;16.65;11.77;;;7.10;89.60;;;;;;5052400;28;20409;-74
2020/12/19 02:41:40;;;;;;;19.98;12.35;;;7.10;89.40;;;;;;5056534;28;20385;-74
2020/12/19 02:44:08;;;;;;;19.98;12.32;;;7.10;90.40;;;;;;5056995;28;20402;-74
2020/12/19 02:46:34;;;;;;;18.50;12.75;;;7.00;90.70;;;;;;5038005;28;20393;-74
2020/12/19 02:49:00;;;;;;;17.38;12.10;;;7.00;90.80;;;;;;5055986;28;20500;-73
2020/12/19 02:51:26;;;;;;;17.77;11.75;;;7.00;91.90;;;;;;5054225;28;20424;-73
2020/12/19 02:53:52;;;;;;;16.70;12.43;;;7.00;90.50;;;;;;5033032;28;20771;-72
2020/12/19 02:56:17;;;;;;;19.42;12.63;;;7.00;92.10;;;;;;5050156;28;20397;-73
2020/12/19 02:58:43;;;;;;;17.60;12.60;;;7.20;91.00;;;;;;5050894;28;20396;-73
2020/12/19 03:01:08;;;;;;;18.53;12.10;;;7.10;90.90;;;;;;5050851;28;20413;-73
2020/12/19 03:03:34;;;;;;;19.27;12.63;;;7.20;90.20;;;;;;5050635;28;20388;-74
2020/12/19 03:06:00;;;;;;;16.40;12.15;;;7.20;89.70;;;;;;5050756;28;20417;-74
2020/12/19 03:08:25;;;;;;;18.52;12.88;;;7.20;90.00;;;;;;5050525;28;20918;-72
2020/12/19 03:10:51;;;;;;;18.90;12.55;;;7.20;89.80;;;;;;5050839;28;20377;-73
2020/12/19 03:13:17;;;;;;;18.33;13.00;;;7.10;90.80;;;;;;5050695;28;20388;-73
2020/12/19 03:15:42;;;;;;;21.20;12.90;;;7.10;90.90;;;;;;5050572;28;20398;-74
2020/12/19 03:18:08;;;;;;;19.13;13.57;;;7.20;91.10;;;;;;5054160;28;20381;-73
2020/12/19 03:20:34;;;;;;;18.37;13.03;;;7.20;90.70;;;;;;5053556;28;20384;-73
2020/12/19 03:22:59;;;;;;;19.48;12.80;;;7.20;89.80;;;;;;5053653;28;20377;-73
2020/12/19 03:25:26;;;;;;;21.48;13.43;;;7.10;91.00;;;;;;5053415;28;20918;-74
2020/12/19 03:27:52;;;;;;;21.73;13.88;;;7.10;91.30;;;;;;5054274;28;20378;-75
2020/12/19 03:30:18;;;;;;;20.23;14.43;;;7.10;91.40;;;;;;5055630;28;20401;-74
2020/12/19 03:32:43;;;;;;;20.65;12.48;;;7.20;90.30;;;;;;5056246;28;20393;-74
2020/12/19 03:35:09;;;;;;;21.70;14.15;;;7.20;90.30;;;;;;5056010;28;20481;-73
2020/12/19 03:37:34;;;;;;;18.30;12.98;;;7.20;89.60;;;;;;5056219;28;20420;-73
2020/12/19 03:40:01;;;;;;;22.58;14.40;;;7.20;89.60;;;;;;5056727;28;20384;-74
2020/12/19 03:42:26;;;;;;;19.25;13.48;;;7.20;90.20;;;;;;5039044;28;20409;-72
2020/12/19 03:44:52;;;;;;;24.07;14.00;;;7.30;88.80;;;;;;5056386;28;20397;-74
2020/12/19 03:47:18;;;;;;;20.77;13.80;;;7.30;89.10;;;;;;5057195;28;20385;-75
2020/12/19 03:49:43;;;;;;;21.40;15.13;;;7.20;90.00;;;;;;5057026;28;20463;-76
2020/12/19 03:52:09;;;;;;;22.00;14.20;;;7.20;89.80;;;;;;5056879;28;20385;-72
2020/12/19 03:54:34;;;;;;;22.03;15.23;;;7.10;90.20;;;;;;5056654;28;20399;-73
2020/12/19 03:57:00;;;;;;;22.13;15.10;;;7.10;90.80;;;;;;5056443;28;20385;-75
2020/12/19 03:59:25;;;;;;;24.20;15.35;;;7.10;91.00;;;;;;5056564;28;20392;-73
2020/12/19 04:01:51;;;;;;;21.60;15.40;;;7.20;90.90;;;;;;5057257;28;20440;-73
2020/12/19 04:04:16;;;;;;;21.95;14.80;;;7.20;89.90;;;;;;5056759;28;20420;-74
2020/12/19 04:06:42;;;;;;;25.13;15.70;;;7.20;89.90;;;;;;5057786;28;20392;-75
2020/12/19 04:09:08;;;;;;;24.15;16.00;;;7.10;90.50;;;;;;5059641;28;20460;-74
2020/12/19 04:11:33;;;;;;;24.58;15.32;;;7.10;90.80;;;;;;5058267;28;20435;-73
2020/12/19 04:13:59;;;;;;;24.48;15.90;;;7.10;90.40;;;;;;5057938;28;20403;-74
2020/12/19 04:16:24;;;;;;;26.20;16.30;;;7.10;90.60;;;;;;5038533;28;20879;-74
2020/12/19 04:18:50;;;;;;;28.38;16.52;;;7.10;90.00;;;;;;5056125;28;20797;-73
2020/12/19 04:21:15;;;;;;;24.75;16.20;;;7.00;90.70;;;;;;5056290;28;20386;-74
2020/12/19 04:23:41;;;;;;;23.05;16.05;;;7.00;91.70;;;;;;5055901;28;20386;-74
2020/12/19 04:26:06;;;;;;;24.70;16.00;;;6.90;92.30;;;;;;5056123;28;20413;-74
2020/12/19 04:28:32;;;;;;;24.53;15.13;;;6.90;91.70;;;;;;5056165;28;20389;-74
2020/12/19 04:30:58;;;;;;;26.80;17.20;;;6.80;92.50;;;;;;5056520;28;20893;-73
2020/12/19 04:33:24;;;;;;;25.97;16.97;;;6.70;93.30;;;;;;5055753;28;20473;-73
2020/12/19 04:35:50;;;;;;;24.13;16.10;;;6.70;94.40;;;;;;5053609;28;20401;-74
2020/12/19 04:38:16;;;;;;;25.17;15.63;;;6.70;94.80;;;;;;5035617;28;20738;-73
2020/12/19 04:40:42;;;;;;;23.57;15.77;;;6.70;94.20;;;;;;5053483;28;20453;-73
2020/12/19 04:43:14;;;;;;;25.07;16.83;;;6.80;93.60;;;;;;5053366;28;20385;-72
2020/12/19 04:45:42;;;;;;;27.73;16.13;;;6.80;93.90;;;;;;5035706;28;20534;-73
2020/12/19 04:48:07;;;;;;;23.88;16.38;;;6.80;93.40;;;;;;5053110;28;20476;-72
2020/12/19 04:50:37;;;;;;;26.37;16.70;;;6.80;92.70;;;;;;5053309;28;20787;-73
2020/12/19 04:53:14;;;;;;;25.75;16.20;;;6.90;92.90;;;;;;5053183;28;20381;-73
2020/12/19 04:55:41;;;;;;;23.58;16.35;;;6.90;92.00;;;;;;5053030;28;20420;-73
2020/12/19 04:58:12;;;;;;;24.25;16.00;;;6.90;92.30;;;;;;5052951;28;20766;-73
2020/12/19 05:00:39;;;;;;;23.65;15.70;;;7.10;91.50;;;;;;5053189;28;20385;-72
2020/12/19 05:03:05;;;;;;;27.08;17.33;;;7.00;90.90;;;;;;5053178;28;20381;-74
2020/12/19 05:05:30;;;;;;;23.77;15.70;;;7.10;91.60;;;;;;5053140;28;20388;-74
2020/12/19 05:07:56;;;;;;;28.37;16.80;;;7.00;90.80;;;;;;5052931;28;21009;-73
2020/12/19 05:10:22;;;;;;;26.67;16.75;;;7.00;91.90;;;;;;5052968;28;20382;-74
2020/12/19 05:12:54;;;;;;;22.80;16.27;;;7.00;91.50;;;;;;5052842;28;20392;-74
2020/12/19 05:15:21;;;;;;;25.38;16.92;;;7.00;91.60;;;;;;5052890;28;20428;-73
2020/12/19 05:17:57;;;;;;;27.55;16.67;;;7.00;91.50;;;;;;5051979;28;20390;-75
2020/12/19 05:20:25;;;;;;;28.38;17.17;;;7.00;91.50;;;;;;5052719;28;20472;-74
2020/12/19 05:22:52;;;;;;;23.60;16.30;;;7.00;91.40;;;;;;5052744;28;20393;-74
2020/12/19 05:25:20;;;;;;;25.55;16.70;;;7.00;90.80;;;;;;5056517;28;20431;-73
2020/12/19 05:27:47;;;;;;;23.85;16.30;;;7.00;91.10;;;;;;5058246;28;20382;-73
2020/12/19 05:30:14;;;;;;;26.77;16.80;;;7.00;91.20;;;;;;5057960;28;20381;-74
2020/12/19 05:32:49;;;;;;;26.37;17.67;;;7.00;91.40;;;;;;5058074;28;20393;-76
2020/12/19 05:35:16;;;;;;;25.60;17.23;;;7.00;92.50;;;;;;5057694;28;20910;-74
2020/12/19 05:37:42;;;;;;;27.55;18.08;;;7.00;92.30;;;;;;5053958;28;20385;-73
2020/12/19 05:40:12;;;;;;;26.40;17.63;;;7.10;91.80;;;;;;5054211;28;20382;-73
2020/12/19 05:42:41;;;;;;;25.40;16.53;;;7.00;91.70;;;;;;5054063;28;20382;-73
2020/12/19 05:45:14;;;;;;;26.93;16.97;;;7.00;91.80;;;;;;5052190;28;20436;-74
2020/12/19 05:47:40;;;;;;;30.17;17.55;;;7.00;92.10;;;;;;5051942;28;20893;-73
2020/12/19 05:50:06;;;;;;;25.83;17.70;;;7.00;91.50;;;;;;5052107;28;20393;-74
2020/12/19 05:52:32;;;;;;;25.83;17.33;;;7.00;91.30;;;;;;5052478;28;20394;-73
2020/12/19 05:55:01;;;;;;;26.63;17.13;;;6.90;91.50;;;;;;5051952;28;20858;-74
2020/12/19 05:57:28;;;;;;;26.00;17.27;;;7.00;91.80;;;;;;5051822;28;20385;-74
2020/12/19 05:59:57;;;;;;;26.70;17.27;;;7.10;90.80;;;;;;5052084;28;20380;-73
2020/12/19 06:02:23;;;;;;;29.42;18.08;;;7.00;90.80;;;;;;5052012;28;20396;-74
2020/12/19 06:04:51;;;;;;;26.55;17.38;;;7.00;91.40;;;;;;5052021;28;20389;-74
2020/12/19 06:07:17;;;;;;;29.05;18.67;;;6.90;92.00;;;;;;5051719;28;20385;-73
2020/12/19 06:09:43;;;;;;;26.80;17.08;;;6.90;92.30;;;;;;5051948;28;20431;-73
2020/12/19 06:12:15;;;;;;;26.30;18.00;;;7.00;92.50;;;;;;5051951;28;20389;-73
2020/12/19 06:14:46;;;;;;;27.57;18.47;;;7.00;91.70;;;;;;5052037;28;20392;-73
2020/12/19 06:17:16;;;;;;;27.27;17.73;;;7.00;91.80;;;;;;5052320;28;20743;-74
2020/12/19 06:19:46;;;;;;;28.60;17.90;;;7.00;91.00;;;;;;5052655;28;20373;-72
2020/12/19 06:22:11;;;;;;;28.10;17.92;;;6.90;91.30;;;;;;5052709;28;20393;-75
2020/12/19 06:24:48;;;;;;;27.47;17.77;;;7.00;91.50;;;;;;5052133;28;20377;-73
2020/12/19 06:27:23;;;;;;;25.85;17.63;;;7.00;91.50;;;;;;5051425;28;20900;-74
2020/12/19 06:29:50;;;;;;;26.20;17.70;;;7.00;92.40;;;;;;5051888;28;20427;-74
2020/12/19 06:32:25;;;;;;;30.42;18.10;;;6.90;93.30;;;;;;5052182;28;20382;-74
2020/12/19 06:35:06;;;;;;;29.03;18.47;;;6.90;93.70;;;;;;5051990;28;20504;-72
2020/12/19 06:37:33;;;;;;;28.30;17.80;;;6.90;94.00;;;;;;5051134;28;20382;-74
2020/12/19 06:40:09;;;;;;;29.33;18.83;;;6.90;93.70;;;;;;5051271;28;20432;-72
2020/12/19 06:42:34;;;;;;;27.30;19.05;;;6.90;93.60;;;;;;5051159;28;20431;-72
2020/12/19 06:45:20;;;;;;;28.83;19.25;;;7.00;93.60;;;;;;5051591;28;20397;-74
2020/12/19 06:47:45;;;;;;;28.45;18.23;;;7.00;93.50;;;;;;5052188;28;20385;-73
2020/12/19 06:50:11;;;;;;;30.75;18.27;;;7.10;93.40;;;;;;5052326;28;20393;-75
2020/12/19 06:52:37;;;;;;;31.92;18.52;;;7.00;93.80;;;;;;5051788;28;20439;-74
2020/12/19 06:55:21;;;;;;;33.70;19.33;;;7.10;93.50;;;;;;5034002;28;20972;-74
2020/12/19 06:57:52;;;;;;;29.92;18.55;;;7.10;94.00;;;;;;5052578;28;20369;-74
2020/12/19 07:00:22;;;;;;;30.83;18.83;;;7.20;93.60;;;;;;5052099;28;20397;-74
2020/12/19 07:02:48;;;;;;;29.25;19.25;;;7.10;93.40;;;;;;5050780;28;20379;-74
2020/12/19 07:05:21;;;;;;;29.27;18.75;;;7.10;93.80;;;;;;5050749;28;20573;-74
2020/12/19 07:07:47;;;;;;;28.42;18.80;;;7.10;94.20;;;;;;5050646;28;20408;-75
2020/12/19 07:10:13;;;;;;;26.00;17.45;;;7.20;93.50;;;;;;5050791;28;20388;-73
2020/12/19 07:12:40;;;;;;;28.85;19.55;;;7.20;92.70;;;;;;5050703;28;20389;-74
2020/12/19 07:15:45;;;;;;;28.08;18.77;;;7.20;93.00;;;;;;5050432;28;20474;-73
2020/12/19 07:18:27;;;;;;;32.92;17.88;;;7.10;94.30;;;;;;5050497;28;20372;-74
2020/12/19 07:21:10;;;;;;;28.42;18.25;;;7.20;94.40;;;;;;5054126;28;20460;-73
2020/12/19 07:23:38;;;;;;;31.70;19.60;;;7.20;94.40;;;;;;5054011;28;20720;-74
2020/12/19 07:26:05;;;;;;;32.40;19.10;;;7.20;94.00;;;;;;5054188;28;20388;-74
2020/12/19 07:28:30;;;;;;;28.45;18.73;;;7.20;94.30;;;;;;5053279;28;20874;-75
2020/12/19 07:30:56;;;;;;;28.00;18.30;;;7.30;94.10;;;;;;5053433;28;20386;-75
2020/12/19 07:33:22;;;;;;;28.83;18.48;;;7.20;94.80;;;;;;5053275;28;20388;-73
2020/12/19 07:35:48;;;;;;;28.10;18.23;;;7.20;95.10;;;;;;5053556;28;20441;-75
2020/12/19 07:38:14;;;;;;;28.75;18.48;;;7.30;94.90;;;;;;5053616;28;20388;-75
2020/12/19 07:40:40;;;;;;;28.70;18.60;;;7.40;93.80;;;;;;5054445;28;20377;-75
2020/12/19 07:43:10;;;;;;;28.67;17.92;;;7.50;92.70;;;;;;5060505;28;20381;-74
2020/12/19 07:45:38;;;;;;;30.40;18.33;;;7.50;92.40;;;;;;5059458;28;20392;-74
2020/12/19 07:48:05;;;;;;;31.15;18.52;;;7.50;92.60;;;;;;5060054;28;20392;-74
2020/12/19 07:50:33;;;;;;;28.90;18.50;;;7.50;92.20;;;;;;5060057;28;20443;-75
2020/12/19 07:52:59;;;;;;;31.00;18.85;;;7.60;92.70;;;;;;5060232;28;20393;-75
2020/12/19 07:55:25;;;;;;;28.63;18.83;;;7.60;91.90;;;;;;5059847;28;20744;-74
2020/12/19 07:57:54;;;;;;;30.67;18.33;;;7.70;92.00;;;;;;5059860;28;20408;-74
2020/12/19 08:00:20;;;;;;;26.73;17.90;;;7.60;90.90;;;;;;5041397;28;20869;-74
2020/12/19 08:02:46;;;;;;;29.17;18.40;;;7.70;91.40;;;;;;5059852;28;20385;-74
2020/12/19 08:05:12;;;;;;;25.20;17.70;;;7.70;91.50;;;;;;5059987;28;20454;-74
2020/12/19 08:07:38;;;;;;;25.75;18.27;;;7.70;91.40;;;;;;5059245;28;20436;-74
2020/12/19 08:10:11;;;;;;;24.30;17.10;;;7.80;90.90;;;;;;5056972;28;20395;-74
2020/12/19 08:12:39;;;;;;;25.25;17.63;;;7.80;91.00;;;;;;5056480;28;20423;-74
2020/12/19 08:15:10;;;;;;;26.83;16.70;;;7.90;90.50;;;;;;5056257;28;20401;-74
2020/12/19 08:17:45;;;;;;;26.43;17.40;;;8.00;88.90;;;;;;5056397;28;21218;-74
2020/12/19 08:20:11;;;;;;;26.67;17.30;;;8.00;89.00;;;;;;5056635;28;20377;-74
2020/12/19 08:22:37;;;;;;;24.17;16.77;;;8.00;87.90;;;;;;5057817;28;20379;-76
2020/12/19 08:25:03;;;;;;;29.10;17.67;;;8.10;86.90;;;;;;5060589;28;20396;-74
2020/12/19 08:27:40;;;;;;;24.63;17.00;;;8.10;87.70;;;;;;5060325;28;20385;-74
2020/12/19 08:30:18;;;;;;;26.35;17.65;;;8.10;87.90;;;;;;5056931;28;22177;-73
2020/12/19 08:32:46;;;;;;;26.73;16.43;;;8.20;87.60;;;;;;5055981;28;20935;-74
2020/12/19 08:35:23;;;;;;;25.45;17.45;;;8.20;86.80;;;;;;5056091;28;20450;-74
2020/12/19 08:37:49;;;;;;;22.90;16.80;;;8.30;86.30;;;;;;5056250;28;20820;-74
2020/12/19 08:40:18;;;;;;;26.58;16.92;;;8.30;85.80;;;;;;5056471;28;20385;-73
2020/12/19 08:42:45;;;;;;;24.73;16.40;;;8.40;85.20;;;;;;5038337;28;20388;-73
2020/12/19 08:45:19;;;;;;;24.15;15.43;;;8.50;84.70;;;;;;5055613;28;20715;-74
2020/12/19 08:47:45;;;;;;;22.95;15.85;;;8.60;83.70;;;;;;5055824;28;20511;-74
2020/12/19 08:50:11;;;;;;;22.40;15.00;;;8.70;82.00;;;;;;5038535;28;20969;-73
2020/12/19 08:52:38;;;;;;;21.27;15.30;;;8.80;80.70;;;;;;5054535;28;20389;-74
2020/12/19 08:55:03;;;;;;;23.35;15.60;;;8.80;81.10;;;;;;5052693;28;20401;-75
2020/12/19 08:57:33;;;;;;;21.60;14.45;;;8.90;80.10;;;;;;5057088;28;20444;-75
2020/12/19 09:00:13;;;;;;;20.98;15.20;;;8.90;79.90;;;;;;5056846;28;20405;-76
2020/12/19 09:02:41;;;;;;;22.47;15.00;;;9.20;80.30;;;;;;5057234;28;20909;-73
2020/12/19 09:05:08;;;;;;;20.25;14.07;;;10.00;72.10;;;;;;5056682;28;20890;-73
2020/12/19 09:07:34;;;;;;;21.65;13.57;;;10.60;65.80;;;;;;5054044;28;20458;-74
2020/12/19 09:09:59;;;;;;;19.03;13.67;;;10.80;60.60;;;;;;5052872;28;20463;-73
2020/12/19 09:12:25;;;;;;;17.93;13.27;;;10.60;60.70;;;;;;5052595;28;20438;-75
2020/12/19 09:14:51;;;;;;;19.17;13.10;;;10.30;63.00;;;;;;5052664;28;20416;-74
2020/12/19 09:17:29;;;;;;;19.23;12.80;;;10.00;66.50;;;;;;5052595;28;20385;-74
2020/12/19 09:20:03;;;;;;;20.08;13.57;;;9.90;67.80;;;;;;5052535;28;20475;-74
2020/12/19 09:22:29;;;;;;;19.50;13.52;;;9.70;70.40;;;;;;5053097;28;20994;-74
2020/12/19 09:24:55;;;;;;;20.52;13.52;;;9.80;70.40;;;;;;5052823;28;20440;-74
2020/12/19 09:27:20;;;;;;;18.17;12.27;;;9.80;70.10;;;;;;5052686;28;20385;-75
2020/12/19 09:29:46;;;;;;;18.97;13.13;;;9.90;69.70;;;;;;5052813;28;20417;-74
2020/12/19 09:32:11;;;;;;;19.15;12.80;;;9.90;69.20;;;;;;5052752;28;20381;-74
2020/12/19 09:34:37;;;;;;;18.67;12.98;;;9.90;69.20;;;;;;5052477;28;20389;-73
2020/12/19 09:37:03;;;;;;;20.25;12.32;;;9.90;69.20;;;;;;5053413;28;20377;-75
2020/12/19 09:39:28;;;;;;;19.53;12.80;;;10.00;69.50;;;;;;5054022;28;20402;-73
2020/12/19 09:41:54;;;;;;;20.60;12.23;;;10.30;67.90;;;;;;5054604;28;20527;-72
2020/12/19 09:44:19;;;;;;;19.23;12.30;;;10.50;64.30;;;;;;5054536;28;20504;-74
2020/12/19 09:46:45;;;;;;;15.32;11.77;;;10.40;64.50;;;;;;5054982;28;20878;-74
2020/12/19 09:49:11;;;;;;;18.53;12.30;;;10.30;65.70;;;;;;5041600;28;20459;-73
2020/12/19 09:51:36;;;;;;;17.37;10.73;;;10.30;66.20;;;;;;5055246;28;20445;-74
2020/12/19 09:54:02;;;;;;;15.80;11.80;;;10.40;65.60;;;;;;5055314;28;20385;-73
2020/12/19 09:56:27;;;;;;;15.20;11.37;;;10.30;65.20;;;;;;5055180;28;20507;-74
2020/12/19 09:58:53;;;;;;;16.60;11.40;;;10.40;65.10;;;;;;5053831;28;20789;-73
2020/12/19 10:01:18;;;;;;;13.70;11.00;;;10.40;65.00;;;;;;5051832;28;20374;-73
2020/12/19 10:03:44;;;;;;;17.77;11.73;;;10.50;64.00;;;;;;5051648;28;20392;-74
2020/12/19 10:06:13;;;;;;;14.00;10.68;;;10.60;63.70;;;;;;5051483;28;20381;-74
2020/12/19 10:08:38;;;;;;;18.23;10.93;;;10.60;63.20;;;;;;5052823;28;20381;-72
2020/12/19 10:11:04;;;;;;;22.07;11.50;;;10.60;62.90;;;;;;5054591;28;20756;-75
2020/12/19 10:13:29;;;;;;;15.98;10.00;;;10.70;62.60;;;;;;5054711;28;20389;-76
2020/12/19 10:15:55;;;;;;;15.25;9.57;;;10.70;62.00;;;;;;5055249;28;20429;-73
2020/12/19 10:18:20;;;;;;;14.40;10.27;;;10.70;61.90;;;;;;5055110;28;20389;-75
2020/12/19 10:20:46;;;;;;;13.43;10.03;;;10.80;62.30;;;;;;5055871;28;20381;-74
2020/12/19 10:23:11;;;;;;;14.80;11.23;;;10.90;60.50;;;;;;5055650;28;20400;-74
2020/12/19 10:25:37;;;;;;;10.83;9.30;;;11.00;60.30;;;;;;5055359;28;20450;-73
2020/12/19 10:28:02;;;;;;;14.33;9.73;;;11.00;59.50;;;;;;5055544;28;20392;-75
2020/12/19 10:30:28;;;;;;;13.20;9.03;;;11.00;59.50;;;;;;5055883;28;20400;-76
2020/12/19 10:32:53;;;;;;;14.50;10.10;;;11.00;58.40;;;;;;5055179;28;20501;-73
2020/12/19 10:35:19;;;;;;;13.23;10.23;;;11.10;58.30;;;;;;5054310;28;20439;-74
2020/12/19 10:37:46;;;;;;;12.68;9.48;;;11.20;58.30;;;;;;5054695;28;20389;-76
2020/12/19 10:40:12;;;;;;;15.53;9.70;;;11.20;57.60;;;;;;5051793;28;20411;-74
2020/12/19 10:42:37;;;;;;;14.87;9.20;;;11.30;57.10;;;;;;5050921;28;20415;-73
2020/12/19 10:45:04;;;;;;;13.70;9.60;;;11.20;56.30;;;;;;5050933;28;20766;-73
2020/12/19 10:47:29;;;;;;;13.15;9.23;;;11.30;56.80;;;;;;5054503;28;20857;-74
2020/12/19 10:49:55;;;;;;;15.20;10.00;;;11.30;56.60;;;;;;5070706;28;20387;-73
2020/12/19 10:52:21;;;;;;;11.30;8.57;;;11.40;56.40;;;;;;5070635;28;20395;-73
2020/12/19 10:54:46;;;;;;;11.00;9.00;;;11.50;55.50;;;;;;5070271;28;20706;-74
2020/12/19 10:57:12;;;;;;;15.70;8.67;;;11.50;55.30;;;;;;5070198;28;20441;-74
2020/12/19 10:59:38;;;;;;;11.20;8.60;;;11.50;54.90;;;;;;5070722;28;20816;-73
2020/12/19 11:02:03;;;;;;;16.80;9.10;;;11.60;55.80;;;;;;5070549;28;20379;-73
2020/12/19 11:04:29;;;;;;;11.93;8.63;;;11.60;55.50;;;;;;5069897;28;20415;-74
2020/12/19 11:06:54;;;;;;;14.93;8.77;;;11.50;55.50;;;;;;5070088;28;20475;-74
2020/12/19 11:09:20;;;;;;;13.75;8.60;;;11.60;54.90;;;;;;5052291;28;20384;-74
2020/12/19 11:11:50;;;;;;;11.73;8.32;;;11.70;54.30;;;;;;5074388;28;20502;-74
2020/12/19 11:14:16;;;;;;;10.65;7.50;;;11.70;54.00;;;;;;5065125;28;20391;-74
2020/12/19 11:16:41;;;;;;;11.90;7.60;;;11.90;52.40;;;;;;5053895;28;20492;-73
2020/12/19 11:19:09;;;;;;;14.00;7.63;;;11.90;53.20;;;;;;5054542;28;20389;-75
2020/12/19 11:21:41;;;;;;;9.63;7.32;;;12.10;51.90;;;;;;5053741;28;20381;-74
2020/12/19 11:24:06;;;;;;;11.43;7.80;;;12.20;51.10;;;;;;5055546;28;20480;-72
2020/12/19 11:26:32;;;;;;;10.40;7.60;;;12.20;50.60;;;;;;5054067;28;20413;-73
2020/12/19 11:28:57;;;;;;;11.63;7.50;;;12.20;49.90;;;;;;5054038;28;20472;-74
2020/12/19 11:31:27;;;;;;;12.70;7.60;;;12.20;51.10;;;;;;5054890;28;20409;-74
2020/12/19 11:33:54;;;;;;;10.55;7.93;;;12.20;50.00;;;;;;5054559;28;20751;-73
2020/12/19 11:36:20;;;;;;;10.43;7.33;;;12.10;51.40;;;;;;5055244;28;20868;-74
2020/12/19 11:38:46;;;;;;;9.37;7.53;;;12.20;50.60;;;;;;5055778;28;20381;-73
2020/12/19 11:41:11;;;;;;;10.40;6.87;;;12.30;50.40;;;;;;5054248;28;20412;-74
2020/12/19 11:43:37;;;;;;;11.20;7.17;;;12.20;50.20;;;;;;5053931;28;20400;-75
2020/12/19 11:46:05;;;;;;;10.67;6.83;;;12.30;49.90;;;;;;5053464;28;20385;-74
2020/12/19 11:48:31;;;;;;;9.23;7.18;;;12.50;48.60;;;;;;5065807;28;20475;-74
2020/12/19 11:50:56;;;;;;;10.17;7.67;;;12.50;47.90;;;;;;5070581;28;20941;-75
2020/12/19 11:53:22;;;;;;;10.60;7.47;;;12.50;48.50;;;;;;5070127;28;20390;-73
2020/12/19 11:55:47;;;;;;;11.98;7.47;;;12.60;48.30;;;;;;5070114;28;20463;-74
2020/12/19 11:58:13;;;;;;;8.93;6.93;;;12.60;48.40;;;;;;5069908;28;20383;-74
2020/12/19 12:00:38;;;;;;;10.17;6.70;;;12.70;47.50;;;;;;5070105;28;20371;-74
2020/12/19 12:03:07;;;;;;;8.63;6.30;;;12.80;47.10;;;;;;5070079;28;20388;-74
2020/12/19 12:05:33;;;;;;;10.65;6.57;;;13.00;46.00;;;;;;5070139;28;20380;-73
2020/12/19 12:07:59;;;;;;;8.95;6.10;;;13.10;45.30;;;;;;5069754;28;20391;-75
2020/12/19 12:10:24;;;;;;;7.43;6.03;;;13.30;45.40;;;;;;5069860;28;20398;-74
2020/12/19 12:12:50;;;;;;;9.30;6.47;;;13.40;43.60;;;;;;5069769;28;20887;-75
2020/12/19 12:15:15;;;;;;;7.23;5.80;;;13.50;43.30;;;;;;5069668;28;20958;-75
2020/12/19 12:17:41;;;;;;;9.43;5.63;;;13.50;42.10;;;;;;5048308;28;20383;-75
2020/12/19 12:20:06;;;;;;;13.00;6.10;;;13.60;41.40;;;;;;5034086;28;20452;-76
2020/12/19 12:22:32;;;;;;;7.05;5.60;;;13.70;41.20;;;;;;5032902;28;20395;-73
2020/12/19 12:24:57;;;;;;;5.93;5.22;;;13.70;40.40;;;;;;5031184;28;20414;-75
2020/12/19 12:27:23;;;;;;;6.50;5.60;;;13.80;40.10;;;;;;5032581;28;20398;-74
2020/12/19 12:29:49;;;;;;;6.03;5.10;;;13.90;40.90;;;;;;5037200;28;20393;-75
2020/12/19 12:32:14;;;;;;;7.23;5.10;;;13.90;40.00;;;;;;5037334;28;20390;-74
2020/12/19 12:34:40;;;;;;;9.63;5.13;;;14.00;39.30;;;;;;5037229;28;20888;-76